createdAt,value
2019-02-08T00:00:59.589Z,66.73
2019-02-08T00:03:35.849Z,66.07
2019-02-08T00:06:07.542Z,66.30
2019-02-08T00:08:38.312Z,65.91
2019-02-08T00:11:08.845Z,65.57
2019-02-08T00:13:42.257Z,65.29
2019-02-08T00:16:15.172Z,65.10
2019-02-08T00:18:51.875Z,65.06
2019-02-08T00:21:22.378Z,65.30
2019-02-08T00:23:52.664Z,65.07
2019-02-08T00:26:22.810Z,64.77
2019-02-08T00:28:53.802Z,64.71
2019-02-08T00:31:27.730Z,64.94
2019-02-08T00:33:58.007Z,64.63
2019-02-08T00:36:29.309Z,64.53
2019-02-08T00:39:03.221Z,64.28
2019-02-08T00:41:37.380Z,64.45
2019-02-08T00:44:40.157Z,64.61
2019-02-08T00:47:10.683Z,64.12
2019-02-08T00:49:40.964Z,64.45
2019-02-08T00:52:14.630Z,64.55
2019-02-08T00:54:44.798Z,64.40
2019-02-08T00:57:15.168Z,64.23
2019-02-08T00:59:45.437Z,64.08
2019-02-08T01:02:15.661Z,64.19
2019-02-08T01:04:45.841Z,64.41
2019-02-08T01:07:16.250Z,64.21
2019-02-08T01:09:46.422Z,64.07
2019-02-08T01:12:17.567Z,64.30
2019-02-08T01:14:47.766Z,63.89
2019-02-08T01:17:17.989Z,63.83
2019-02-08T01:19:49.850Z,63.76
2019-02-08T01:22:20.247Z,64.18
2019-02-08T01:24:50.553Z,63.98
2019-02-08T01:27:20.827Z,63.95
2019-02-08T01:29:51.033Z,64.05
2019-02-08T01:32:21.220Z,64.15
2019-02-08T01:35:02.501Z,63.97
2019-02-08T01:37:32.941Z,64.07
2019-02-08T01:43:03.747Z,64.01
2019-02-08T01:45:34.155Z,63.77
2019-02-08T01:48:05.236Z,63.65
2019-02-08T01:50:36.435Z,63.81
2019-02-08T01:53:11.111Z,64.12
2019-02-08T01:55:41.501Z,64.02
2019-02-08T01:58:20.433Z,64.00
2019-02-08T02:01:04.875Z,64.10
2019-02-08T02:03:45.859Z,64.25
2019-02-08T02:06:17.902Z,64.03
2019-02-08T02:08:48.358Z,63.98
2019-02-08T02:11:18.821Z,64.35
2019-02-08T02:13:49.518Z,64.04
2019-02-08T02:16:20.162Z,64.00
2019-02-08T02:19:02.742Z,63.83
2019-02-08T02:21:32.959Z,63.96
2019-02-08T02:24:03.148Z,64.01
2019-02-08T02:26:48.219Z,64.31
2019-02-08T02:29:18.475Z,64.34
2019-02-08T02:31:50.610Z,64.04
2019-02-08T02:34:22.731Z,64.04
2019-02-08T02:36:53.102Z,63.93
2019-02-08T02:39:27.226Z,63.97
2019-02-08T02:42:08.920Z,63.95
2019-02-08T02:44:36.264Z,63.91
2019-02-08T02:47:06.932Z,64.34
2019-02-08T02:49:42.101Z,63.98
2019-02-08T02:52:17.844Z,64.33
2019-02-08T02:54:49.478Z,64.54
2019-02-08T02:57:19.725Z,64.58
2019-02-08T02:59:50.018Z,64.83
2019-02-08T03:02:20.346Z,64.71
2019-02-08T03:04:50.655Z,64.51
2019-02-08T03:07:20.840Z,65.04
2019-02-08T03:09:52.817Z,64.67
2019-02-08T03:12:23.123Z,64.36
2019-02-08T03:14:53.418Z,64.31
2019-02-08T03:17:23.700Z,64.20
2019-02-08T03:19:53.849Z,64.20
2019-02-08T03:22:24.094Z,64.19
2019-02-08T03:24:54.289Z,64.05
2019-02-08T03:27:24.901Z,64.10
2019-02-08T03:29:55.286Z,63.94
2019-02-08T03:32:25.534Z,64.08
2019-02-08T03:34:55.798Z,64.08
2019-02-08T03:37:26.036Z,64.04
2019-02-08T03:39:56.311Z,63.91
2019-02-08T03:42:26.503Z,63.74
2019-02-08T03:44:56.777Z,63.63
2019-02-08T03:47:30.945Z,63.40
2019-02-08T03:50:01.214Z,63.93
2019-02-08T03:55:29.082Z,63.65
2019-02-08T03:58:00.779Z,63.47
2019-02-08T04:00:37.886Z,63.39
2019-02-08T04:03:08.041Z,63.25
2019-02-08T04:05:38.272Z,63.14
2019-02-08T04:08:09.563Z,63.45
2019-02-08T04:10:40.145Z,63.24
2019-02-08T04:13:10.324Z,63.12
2019-02-08T04:15:43.494Z,63.00
2019-02-08T04:18:25.800Z,62.93
2019-02-08T04:20:56.375Z,62.62
2019-02-08T04:23:33.730Z,62.55
2019-02-08T04:26:04.635Z,62.06
2019-02-08T04:28:36.429Z,62.17
2019-02-08T04:31:10.114Z,62.09
2019-02-08T04:33:41.619Z,62.05
2019-02-08T04:36:15.034Z,61.85
2019-02-08T04:39:00.350Z,61.74
2019-02-08T04:42:56.467Z,61.84
2019-02-08T04:44:46.753Z,61.80
2019-02-08T04:47:17.004Z,61.90
2019-02-08T04:49:54.842Z,62.16
2019-02-08T04:52:27.682Z,62.42
2019-02-08T04:54:58.231Z,62.14
2019-02-08T04:57:31.650Z,62.29
2019-02-08T05:00:01.887Z,62.05
2019-02-08T05:02:32.901Z,62.37
2019-02-08T05:05:04.005Z,61.96
2019-02-08T05:07:41.841Z,62.11
2019-02-08T05:10:19.227Z,62.83
2019-02-08T05:12:49.535Z,63.97
2019-02-08T05:15:23.183Z,63.41
2019-02-08T05:17:53.875Z,63.77
2019-02-08T05:20:26.403Z,63.71
2019-02-08T05:22:59.870Z,64.22
2019-02-08T05:25:31.687Z,64.49
2019-02-08T05:28:01.869Z,64.33
2019-02-08T05:30:33.760Z,64.79
2019-02-08T05:33:07.959Z,64.64
2019-02-08T05:35:42.834Z,65.09
2019-02-08T05:38:13.183Z,65.15
2019-02-08T05:40:44.975Z,65.49
2019-02-08T05:43:22.573Z,65.91
2019-02-08T05:45:59.251Z,66.57
2019-02-08T05:48:29.924Z,66.08
2019-02-08T05:51:00.288Z,66.07
2019-02-08T05:53:30.626Z,66.43
2019-02-08T05:56:01.246Z,66.91
2019-02-08T05:58:31.793Z,67.05
2019-02-08T06:01:02.091Z,67.07
2019-02-08T06:03:32.599Z,67.31
2019-02-08T06:06:02.781Z,67.59
2019-02-08T06:08:32.957Z,67.45
2019-02-08T06:11:03.183Z,67.52
2019-02-08T06:13:33.450Z,67.32
2019-02-08T06:16:03.756Z,66.83
2019-02-08T06:18:34.870Z,66.80
2019-02-08T06:21:05.320Z,66.92
2019-02-08T06:23:35.727Z,66.67
2019-02-08T06:26:06.203Z,66.95
2019-02-08T06:28:36.403Z,66.81
2019-02-08T06:31:06.658Z,66.87
2019-02-08T06:33:36.863Z,66.51
2019-02-08T06:36:07.362Z,66.84
2019-02-08T06:38:37.590Z,66.45
2019-02-08T06:41:07.816Z,65.97
2019-02-08T06:43:38.006Z,65.85
2019-02-08T06:46:08.351Z,66.05
2019-02-08T06:48:38.568Z,66.97
2019-02-08T06:51:08.769Z,66.76
2019-02-08T06:53:38.951Z,66.78
2019-02-08T06:56:28.057Z,66.73
2019-02-08T06:59:12.640Z,66.11
2019-02-08T07:02:01.774Z,65.78
2019-02-08T07:04:49.468Z,65.48
2019-02-08T07:07:47.512Z,65.56
2019-02-08T07:10:54.679Z,65.35
2019-02-08T07:13:43.817Z,65.08
2019-02-08T07:16:23.414Z,65.38
2019-02-08T07:19:06.128Z,65.22
2019-02-08T07:22:01.373Z,65.26
2019-02-08T07:24:36.460Z,65.09
2019-02-08T07:27:15.262Z,64.89
2019-02-08T07:30:13.256Z,64.91
2019-02-08T07:33:08.156Z,64.74
2019-02-08T07:35:55.657Z,64.48
2019-02-08T07:38:34.896Z,64.32
2019-02-08T07:41:19.322Z,64.06
2019-02-08T07:44:20.784Z,64.05
2019-02-08T07:47:27.132Z,64.02
2019-02-08T07:50:22.092Z,63.90
2019-02-08T07:53:14.588Z,64.94
2019-02-08T07:56:04.650Z,64.31
2019-02-08T07:58:52.461Z,63.91
2019-02-08T08:01:47.750Z,63.71
2019-02-08T08:04:43.174Z,63.75
2019-02-08T08:07:29.708Z,63.27
2019-02-08T08:10:19.517Z,62.98
2019-02-08T08:13:14.432Z,62.87
2019-02-08T08:16:09.826Z,62.67
2019-02-08T08:18:58.112Z,62.55
2019-02-08T08:21:56.434Z,63.15
2019-02-08T08:24:49.083Z,63.39
2019-02-08T08:27:34.194Z,63.46
2019-02-08T08:30:19.780Z,62.97
2019-02-08T08:33:06.644Z,62.87
2019-02-08T08:36:12.461Z,63.41
2019-02-08T08:39:19.447Z,62.78
2019-02-08T08:42:39.525Z,62.61
2019-02-08T08:45:46.222Z,62.61
2019-02-08T08:48:48.577Z,62.26
2019-02-08T08:51:49.923Z,61.55
2019-02-08T08:55:15.149Z,61.45
2019-02-08T08:58:41.570Z,61.45
2019-02-08T09:01:51.153Z,60.94
2019-02-08T09:04:46.039Z,60.72
2019-02-08T09:07:58.733Z,60.73
2019-02-08T09:11:18.887Z,60.36
2019-02-08T09:14:39.106Z,59.87
2019-02-08T09:17:46.754Z,59.86
2019-02-08T09:21:02.572Z,59.68
2019-02-08T09:24:04.650Z,59.79
2019-02-08T09:27:16.175Z,60.24
2019-02-08T09:30:23.008Z,60.69
2019-02-08T09:33:28.377Z,60.83
2019-02-08T09:36:34.916Z,60.44
2019-02-08T09:39:47.953Z,59.82
2019-02-08T09:43:00.429Z,59.53
2019-02-08T09:46:22.029Z,58.80
2019-02-08T09:49:39.403Z,58.44
2019-02-08T09:52:56.047Z,58.24
2019-02-08T09:56:01.720Z,58.41
2019-02-08T09:58:57.067Z,59.08
2019-02-08T10:02:02.637Z,59.17
2019-02-08T10:05:08.175Z,58.76
2019-02-08T10:08:30.043Z,58.27
2019-02-08T10:12:08.152Z,58.14
2019-02-08T10:15:16.380Z,57.89
2019-02-08T10:18:16.968Z,57.63
2019-02-08T10:21:22.965Z,57.98
2019-02-08T10:24:19.333Z,57.81
2019-02-08T10:27:23.374Z,57.24
2019-02-08T10:30:28.874Z,57.33
2019-02-08T10:33:38.170Z,57.33
2019-02-08T10:36:33.167Z,56.80
2019-02-08T10:39:35.385Z,56.03
2019-02-08T10:42:45.304Z,56.05
2019-02-08T10:45:59.762Z,55.59
2019-02-08T10:48:57.298Z,56.28
2019-02-08T10:52:21.967Z,55.75
2019-02-08T10:55:17.206Z,56.18
2019-02-08T10:58:27.017Z,56.72
2019-02-08T11:01:50.614Z,56.34
2019-02-08T11:05:00.416Z,55.25
2019-02-08T11:08:05.071Z,55.25
2019-02-08T11:11:23.079Z,54.97
2019-02-08T11:14:26.145Z,55.61
2019-02-08T11:17:30.381Z,55.13
2019-02-08T11:20:02.595Z,55.51
2019-02-08T11:22:34.962Z,54.97
2019-02-08T11:25:06.002Z,55.38
2019-02-08T11:27:36.373Z,55.82
2019-02-08T11:30:09.548Z,55.22
2019-02-08T11:32:43.479Z,54.84
2019-02-08T11:35:18.334Z,54.97
2019-02-08T11:37:48.455Z,55.47
2019-02-08T11:40:22.094Z,56.30
2019-02-08T11:42:52.409Z,55.40
2019-02-08T11:45:23.273Z,55.73
2019-02-08T11:47:53.902Z,55.11
2019-02-08T11:50:24.242Z,54.53
2019-02-08T11:52:54.556Z,55.11
2019-02-08T11:55:26.780Z,54.44
2019-02-08T11:57:56.620Z,53.46
2019-02-08T12:00:37.013Z,53.05
2019-02-08T12:03:07.418Z,53.34
2019-02-08T12:05:37.565Z,53.97
2019-02-08T12:08:08.210Z,53.72
2019-02-08T12:10:38.502Z,53.85
2019-02-08T12:13:09.151Z,54.02
2019-02-08T12:15:39.656Z,54.34
2019-02-08T12:18:10.117Z,54.03
2019-02-08T12:20:41.772Z,54.24
2019-02-08T12:23:12.059Z,54.38
2019-02-08T12:25:42.296Z,54.78
2019-02-08T12:28:12.617Z,55.72
2019-02-08T12:30:43.214Z,54.95
2019-02-08T12:33:14.259Z,54.84
2019-02-08T12:35:44.681Z,54.76
2019-02-08T12:38:15.897Z,55.08
2019-02-08T12:40:46.638Z,54.94
2019-02-08T12:43:17.188Z,55.13
2019-02-08T12:45:47.375Z,55.55
2019-02-08T12:48:17.550Z,55.70
2019-02-08T12:50:47.849Z,55.91
2019-02-08T12:53:27.651Z,55.63
2019-02-08T12:55:58.402Z,55.31
2019-02-08T12:58:29.968Z,55.04
2019-02-08T13:01:37.415Z,54.90
2019-02-08T13:04:03.721Z,54.63
2019-02-08T13:06:37.099Z,54.72
2019-02-08T13:09:25.219Z,54.95
2019-02-08T13:12:12.499Z,54.57
2019-02-08T13:14:49.590Z,54.08
2019-02-08T13:17:20.020Z,54.20
2019-02-08T13:19:50.536Z,54.30
2019-02-08T13:22:22.164Z,54.41
2019-02-08T13:24:57.772Z,54.15
2019-02-08T13:27:48.011Z,54.78
2019-02-08T13:30:27.703Z,54.58
2019-02-08T13:32:58.372Z,55.12
2019-02-08T13:35:32.317Z,55.00
2019-02-08T13:38:05.859Z,55.16
2019-02-08T13:40:43.195Z,55.14
2019-02-08T13:43:13.586Z,56.10
2019-02-08T13:45:44.009Z,56.41
2019-02-08T13:48:14.415Z,56.15
2019-02-08T13:50:45.093Z,56.17
2019-02-08T13:53:15.545Z,56.30
2019-02-08T13:55:46.097Z,56.22
2019-02-08T13:58:16.964Z,56.87
2019-02-08T14:00:47.332Z,57.03
2019-02-08T14:03:17.812Z,57.07
2019-02-08T14:05:48.112Z,57.00
2019-02-08T14:08:18.498Z,56.66
2019-02-08T14:10:48.900Z,56.19
2019-02-08T14:13:19.174Z,56.50
2019-02-08T14:15:52.396Z,56.83
2019-02-08T14:18:22.996Z,56.57
2019-02-08T14:20:53.436Z,56.75
2019-02-08T14:23:23.722Z,56.48
2019-02-08T14:25:53.894Z,56.80
2019-02-08T14:28:24.170Z,56.41
2019-02-08T14:30:56.080Z,56.28
2019-02-08T14:33:34.326Z,56.64
2019-02-08T14:36:13.130Z,56.72
2019-02-08T14:38:46.740Z,57.30
2019-02-08T14:41:21.945Z,57.36
2019-02-08T14:43:52.381Z,57.38
2019-02-08T14:46:22.715Z,57.67
2019-02-08T14:48:57.201Z,57.88
2019-02-08T14:51:31.903Z,58.06
2019-02-08T14:54:02.547Z,58.13
2019-02-08T14:56:35.859Z,58.81
2019-02-08T14:59:05.272Z,58.93
2019-02-08T15:01:40.120Z,59.30
2019-02-08T15:04:14.589Z,59.14
2019-02-08T15:06:45.492Z,59.14
2019-02-08T15:09:16.054Z,59.29
2019-02-08T15:11:46.636Z,59.36
2019-02-08T15:14:19.854Z,59.73
2019-02-08T15:16:50.122Z,59.63
2019-02-08T15:19:20.494Z,60.69
2019-02-08T15:21:51.255Z,60.33
2019-02-08T15:24:30.420Z,60.53
2019-02-08T15:27:02.964Z,60.96
2019-02-08T15:29:33.928Z,60.24
2019-02-08T15:32:04.935Z,60.20
2019-02-08T15:34:35.421Z,60.13
2019-02-08T15:37:07.674Z,60.57
2019-02-08T15:39:38.228Z,61.32
2019-02-08T15:42:09.497Z,60.95
2019-02-08T15:44:41.679Z,60.92
2019-02-08T15:47:11.880Z,61.05
2019-02-08T15:49:42.103Z,61.00
2019-02-08T15:52:13.936Z,60.99
2019-02-08T15:54:45.412Z,60.71
2019-02-08T15:57:16.023Z,60.86
2019-02-08T16:00:01.048Z,60.69
2019-02-08T16:02:32.198Z,60.59
2019-02-08T16:05:02.370Z,61.16
2019-02-08T16:07:34.045Z,60.63
2019-02-08T16:10:06.131Z,60.71
2019-02-08T16:12:37.757Z,60.59
2019-02-08T16:15:23.466Z,60.70
2019-02-08T16:18:00.173Z,60.64
2019-02-08T16:20:41.332Z,60.94
2019-02-08T16:23:11.669Z,60.88
2019-02-08T16:25:42.261Z,61.01
2019-02-08T16:28:12.491Z,61.25
2019-02-08T16:30:43.866Z,61.12
2019-02-08T16:33:18.487Z,61.14
2019-02-08T16:36:01.197Z,61.15
2019-02-08T16:38:31.581Z,60.96
2019-02-08T16:41:09.491Z,60.86
2019-02-08T16:43:41.837Z,60.95
2019-02-08T16:46:12.450Z,60.92
2019-02-08T16:48:42.921Z,61.06
2019-02-08T16:51:13.070Z,61.25
2019-02-08T16:53:43.295Z,61.56
2019-02-08T16:56:14.769Z,61.94
2019-02-08T16:58:44.973Z,62.11
2019-02-08T17:01:17.647Z,61.93
2019-02-08T17:03:48.153Z,61.99
2019-02-08T17:06:20.633Z,61.81
2019-02-08T17:08:53.251Z,61.92
2019-02-08T17:11:30.493Z,61.95
2019-02-08T17:14:01.740Z,61.85
2019-02-08T17:16:32.216Z,61.73
2019-02-08T17:19:18.359Z,62.18
2019-02-08T17:21:50.723Z,62.10
2019-02-08T17:24:21.049Z,61.75
2019-02-08T17:26:51.558Z,61.42
2019-02-08T17:29:21.724Z,61.34
2019-02-08T17:31:52.048Z,61.42
2019-02-08T17:34:22.647Z,61.55
2019-02-08T17:36:52.965Z,61.57
2019-02-08T17:39:23.623Z,61.45
2019-02-08T17:41:54.310Z,61.68
2019-02-08T17:44:24.940Z,61.99
2019-02-08T17:47:02.269Z,61.91
2019-02-08T17:49:38.931Z,61.93
2019-02-08T17:52:31.772Z,61.79
2019-02-08T17:55:17.666Z,61.95
2019-02-08T17:57:53.233Z,62.21
2019-02-08T18:00:40.272Z,61.98
2019-02-08T18:03:12.589Z,62.01
2019-02-08T18:05:43.324Z,61.95
2019-02-08T18:08:14.288Z,62.29
2019-02-08T18:10:44.852Z,62.57
2019-02-08T18:13:22.637Z,62.45
2019-02-08T18:15:53.328Z,62.35
2019-02-08T18:18:25.393Z,62.42
2019-02-08T18:21:04.623Z,62.40
2019-02-08T18:23:35.198Z,62.38
2019-02-08T18:26:19.860Z,61.95
2019-02-08T18:28:50.692Z,61.97
2019-02-08T18:31:22.690Z,62.12
2019-02-08T18:33:52.854Z,61.97
2019-02-08T18:36:23.222Z,62.70
2019-02-08T18:38:57.383Z,62.88
2019-02-08T18:41:27.926Z,62.51
2019-02-08T18:43:59.979Z,62.43
2019-02-08T18:46:30.676Z,62.75
2019-02-08T18:49:01.106Z,62.72
2019-02-08T18:51:31.678Z,62.58
2019-02-08T18:54:02.939Z,62.66
2019-02-08T18:56:33.155Z,62.51
2019-02-08T18:59:03.725Z,62.81
2019-02-08T19:01:34.401Z,62.68
2019-02-08T19:04:04.853Z,62.42
2019-02-08T19:06:35.232Z,62.61
2019-02-08T19:09:33.859Z,62.41
2019-02-08T19:12:07.731Z,62.18
2019-02-08T19:14:39.215Z,62.11
2019-02-08T19:17:10.207Z,62.19
2019-02-08T19:19:41.942Z,62.15
2019-02-08T19:22:15.327Z,62.13
2019-02-08T19:24:51.187Z,62.01
2019-02-08T19:27:19.449Z,62.26
2019-02-08T19:29:52.933Z,62.38
2019-02-08T19:32:25.155Z,62.30
2019-02-08T19:34:56.900Z,62.08
2019-02-08T19:37:27.615Z,62.54
2019-02-08T19:39:58.785Z,62.35
2019-02-08T19:42:32.480Z,62.24
2019-02-08T19:45:07.692Z,61.91
2019-02-08T19:47:38.305Z,61.77
2019-02-08T19:50:10.814Z,61.63
2019-02-08T19:52:42.021Z,61.74
2019-02-08T19:55:12.687Z,61.62
2019-02-08T19:57:46.519Z,61.67
2019-02-08T20:00:19.007Z,61.38
2019-02-08T20:02:49.815Z,61.62
2019-02-08T20:05:24.475Z,61.39
2019-02-08T20:07:55.204Z,61.30
2019-02-08T20:10:33.483Z,61.21
2019-02-08T20:13:05.113Z,61.37
2019-02-08T20:15:35.829Z,61.95
2019-02-08T20:18:07.706Z,61.64
2019-02-08T20:20:38.155Z,61.31
2019-02-08T20:23:10.708Z,61.49
2019-02-08T20:25:41.081Z,61.28
2019-02-08T20:28:11.805Z,61.25
2019-02-08T20:30:57.609Z,61.13
2019-02-08T20:33:35.691Z,61.17
2019-02-08T20:36:09.097Z,61.08
2019-02-08T20:38:39.369Z,60.94
2019-02-08T20:41:09.786Z,60.82
2019-02-08T20:43:39.943Z,61.03
2019-02-08T20:46:18.798Z,60.87
2019-02-08T20:48:49.148Z,60.61
2019-02-08T20:51:19.874Z,60.60
2019-02-08T20:53:50.459Z,60.66
2019-02-08T20:56:22.829Z,60.87
2019-02-08T20:58:53.287Z,60.61
2019-02-08T21:01:24.305Z,60.60
2019-02-08T21:04:16.876Z,60.56
2019-02-08T21:06:47.104Z,60.35
2019-02-08T21:09:18.288Z,60.25
2019-02-08T21:11:50.065Z,60.24
2019-02-08T21:14:21.593Z,60.45
2019-02-08T21:16:52.287Z,60.42
2019-02-08T21:19:22.581Z,60.51
2019-02-08T21:21:54.704Z,60.34
2019-02-08T21:24:25.087Z,60.56
2019-02-08T21:26:59.157Z,60.53
2019-02-08T21:29:29.661Z,60.63
2019-02-08T21:32:00.259Z,60.75
2019-02-08T21:34:30.512Z,60.93
2019-02-08T21:37:00.914Z,60.91
2019-02-08T21:39:33.818Z,61.11
2019-02-08T21:42:07.179Z,61.09
2019-02-08T21:44:43.459Z,60.98
2019-02-08T21:47:13.867Z,61.05
2019-02-08T21:49:44.157Z,60.89
2019-02-08T21:52:14.484Z,61.08
2019-02-08T21:54:45.132Z,60.86
2019-02-08T21:57:15.530Z,60.85
2019-02-08T21:59:48.713Z,60.77
2019-02-08T22:02:19.602Z,61.02
2019-02-08T22:04:51.923Z,61.16
2019-02-08T22:07:33.072Z,61.07
2019-02-08T22:10:03.804Z,61.28
2019-02-08T22:12:36.211Z,60.93
2019-02-08T22:15:10.131Z,60.96
2019-02-08T22:17:42.596Z,60.82
2019-02-08T22:20:16.917Z,60.89
2019-02-08T22:22:47.216Z,60.70
2019-02-08T22:25:18.508Z,61.08
2019-02-08T22:27:49.064Z,60.99
2019-02-08T22:30:21.112Z,60.86
2019-02-08T22:32:52.726Z,60.81
2019-02-08T22:35:24.991Z,60.70
2019-02-08T22:37:56.628Z,60.48
2019-02-08T22:40:29.560Z,60.69
2019-02-08T22:43:00.047Z,61.01
2019-02-08T22:45:32.395Z,60.80
2019-02-08T22:48:04.006Z,60.66
2019-02-08T22:50:34.546Z,60.67
2019-02-08T22:53:07.074Z,60.71
2019-02-08T22:55:39.801Z,60.57
2019-02-08T22:58:10.454Z,60.62
2019-02-08T23:01:15.554Z,60.64
2019-02-08T23:03:47.586Z,60.12
2019-02-08T23:06:19.502Z,60.05
2019-02-08T23:08:50.133Z,59.95
2019-02-08T23:11:23.098Z,60.00
2019-02-08T23:13:57.680Z,59.77
2019-02-08T23:16:29.829Z,59.84
2019-02-08T23:19:01.713Z,59.85
2019-02-08T23:21:32.383Z,59.83
2019-02-08T23:24:02.835Z,59.84
2019-02-08T23:26:34.073Z,59.72
2019-02-08T23:29:05.105Z,59.32
2019-02-08T23:31:37.924Z,59.51
2019-02-08T23:34:08.770Z,59.11
2019-02-08T23:36:43.389Z,58.97
2019-02-08T23:39:17.218Z,59.03
2019-02-08T23:41:47.786Z,58.70
2019-02-08T23:44:18.119Z,58.75
2019-02-08T23:46:48.385Z,58.63
2019-02-08T23:49:19.038Z,59.40
2019-02-08T23:51:49.524Z,59.03
2019-02-08T23:54:20.222Z,58.71
2019-02-08T23:56:50.546Z,58.98
2019-02-08T23:59:21.069Z,58.68
